EKRN

Bornholm Airport

Rønne, Denmark
METAR EKRN 210650Z AUTO 09009KT 9999NDV NCD 16/06 Q1028
Observed Flight Rules
May-21 @ 06:50 UTC (26 minutes ago)
Wind Clouds
90° at 9 knots
  • Clear skies
Temperatures Readings
Current 16°C / 61°F
Dewpoint 6°C / 43°F
Humidity 52%
Altimeter 30.35" Hg
Pressure 1028 hPa
Elevation 16
METAR EKRN 210650Z AUTO 09009KT 9999NDV NCD 16/06 Q1028
Observed Flight Rules
May-21 @ 06:50 UTC
(26 minutes ago)
Wind
90° at 9 knots
Clouds
  • Clear skies
Temperature Dewpoint
16°C / 61°F 6°C / 43°F
Humidity Altimeter Pressure
52% 30.35" Hg 1028 hPa